PWSweather.com
Personal Weather Stations
Station Observations
GEELONGWX1
Bell Post Hill, GeelongAU

Bell Post HillGeelongAU

Lat: -38.101, Lon: 144.326

Elevation: 204

Station Type: Davis Vantage Pro2

http://www.geelongweather.com

High Low Average
Temperature 71.6°F22.0°C 52.6°F11.4°C 60.5°F15.8°C
Dew Point 59.0°F15.0°C 48.5°F9.2°C 53.1°F11.7°C
Winds 9.2 mph 14.8 kmh 1.2 mph 1.9 kmh 4.0 mph S6.4 kmh S
Wind Gusts 16.1 mph25.9 kmh 1.2 mph1.9 kmh 7.0 mph11.3 kmh
Humidity 88% 47% 78%
Pressure 29.97 in1014.9 mb 29.68 in1005.1 mb -
Precipitation 0.32 in8.1 mm - -
Hour Temp Dew Point Humidity Winds Wind Gusts Pressure Precip Precip Rate Daily Precip Total
12:00 AM 60.9°F16.1°C 56.7°F13.7°C 86% 1.2 mph SW1.9 kmh SW 3.5 mph5.6 kmh 29.74 in1007.1 mb - 0.00 in0.0 mm 0.01 in0.3 mm
12:10 AM 60.6°F15.9°C 56.3°F13.5°C 86% 1.2 mph SSW1.9 kmh SSW 3.5 mph5.6 kmh 29.74 in1007.1 mb - 0.00 in0.0 mm 0.01 in0.3 mm
12:20 AM 60.2°F15.7°C 56.0°F13.3°C 86% 1.2 mph SW1.9 kmh SW 1.2 mph1.9 kmh 29.73 in1006.8 mb - 0.00 in0.0 mm 0.01 in0.3 mm
12:30 AM 59.8°F15.4°C 55.6°F13.1°C 86% 1.2 mph SW1.9 kmh SW 2.3 mph3.7 kmh 29.73 in1006.8 mb - 0.00 in0.0 mm 0.01 in0.3 mm
12:40 AM 59.5°F15.3°C 55.3°F12.9°C 86% 1.2 mph SW1.9 kmh SW 3.5 mph5.6 kmh 29.72 in1006.4 mb - 0.00 in0.0 mm 0.01 in0.3 mm
12:50 AM 59.1°F15.1°C 54.9°F12.7°C 86% 1.2 mph SW1.9 kmh SW 3.5 mph5.6 kmh 29.72 in1006.4 mb - 0.00 in0.0 mm 0.01 in0.3 mm
01:00 AM 58.9°F14.9°C 54.7°F12.6°C 86% 1.2 mph SSW1.9 kmh SSW 2.3 mph3.7 kmh 29.72 in1006.4 mb - 0.00 in0.0 mm 0.01 in0.3 mm
01:10 AM 58.7°F14.8°C 54.5°F12.5°C 86% 1.2 mph SW1.9 kmh SW 3.5 mph5.6 kmh 29.72 in1006.4 mb - 0.00 in0.0 mm 0.01 in0.3 mm
01:20 AM 58.5°F14.7°C 54.3°F12.4°C 86% 1.2 mph SW1.9 kmh SW 3.5 mph5.6 kmh 29.71 in1006.1 mb - 0.00 in0.0 mm 0.01 in0.3 mm
01:30 AM 58.3°F14.6°C 54.1°F12.3°C 86% 1.2 mph SW1.9 kmh SW 3.5 mph5.6 kmh 29.71 in1006.1 mb - 0.00 in0.0 mm 0.01 in0.3 mm
01:40 AM 58.2°F14.6°C 54.0°F12.2°C 86% 1.2 mph SW1.9 kmh SW 3.5 mph5.6 kmh 29.70 in1005.8 mb - 0.00 in0.0 mm 0.01 in0.3 mm
01:50 AM 58.0°F14.4°C 54.1°F12.3°C 87% 2.3 mph SW3.7 kmh SW 3.5 mph5.6 kmh 29.70 in1005.8 mb - 0.00 in0.0 mm 0.01 in0.3 mm
02:00 AM 57.8°F14.3°C 54.0°F12.2°C 87% 1.2 mph WSW1.9 kmh WSW 3.5 mph5.6 kmh 29.70 in1005.8 mb - 0.00 in0.0 mm 0.01 in0.3 mm
02:10 AM 57.7°F14.3°C 53.9°F12.2°C 87% 1.2 mph SW1.9 kmh SW 2.3 mph3.7 kmh 29.69 in1005.4 mb - 0.00 in0.0 mm 0.01 in0.3 mm
02:20 AM 57.5°F14.2°C 54.0°F12.2°C 88% 3.5 mph SW5.6 kmh SW 4.6 mph7.4 kmh 29.69 in1005.4 mb - 0.00 in0.0 mm 0.01 in0.3 mm
02:30 AM 57.4°F14.1°C 53.9°F12.2°C 88% 2.3 mph SW3.7 kmh SW 5.8 mph9.3 kmh 29.68 in1005.1 mb - 0.00 in0.0 mm 0.01 in0.3 mm
02:40 AM 57.3°F14.1°C 53.8°F12.1°C 88% 2.3 mph SW3.7 kmh SW 4.6 mph7.4 kmh 29.68 in1005.1 mb - 0.00 in0.0 mm 0.01 in0.3 mm
02:50 AM 57.2°F14.0°C 53.7°F12.1°C 88% 1.2 mph SW1.9 kmh SW 2.3 mph3.7 kmh 29.69 in1005.4 mb - 0.00 in0.0 mm 0.01 in0.3 mm
03:00 AM 57.1°F13.9°C 53.6°F12.0°C 88% 2.3 mph SW3.7 kmh SW 3.5 mph5.6 kmh 29.69 in1005.4 mb - 0.00 in0.0 mm 0.01 in0.3 mm
03:10 AM 57.0°F13.9°C 53.5°F11.9°C 88% 3.5 mph WSW5.6 kmh WSW 5.8 mph9.3 kmh 29.69 in1005.4 mb - 0.00 in0.0 mm 0.01 in0.3 mm
03:20 AM 56.9°F13.8°C 53.4°F11.9°C 88% 2.3 mph SW3.7 kmh SW 4.6 mph7.4 kmh 29.69 in1005.4 mb - 0.00 in0.0 mm 0.01 in0.3 mm
03:30 AM 56.9°F13.8°C 53.4°F11.9°C 88% 3.5 mph SW5.6 kmh SW 3.5 mph5.6 kmh 29.69 in1005.4 mb - 0.00 in0.0 mm 0.01 in0.3 mm
03:40 AM 56.9°F13.8°C 53.4°F11.9°C 88% 2.3 mph SW3.7 kmh SW 3.5 mph5.6 kmh 29.69 in1005.4 mb - 0.00 in0.0 mm 0.01 in0.3 mm
03:50 AM 56.9°F13.8°C 53.4°F11.9°C 88% 2.3 mph SSW3.7 kmh SSW 3.5 mph5.6 kmh 29.69 in1005.4 mb - 0.00 in0.0 mm 0.01 in0.3 mm
04:00 AM 56.9°F13.8°C 53.4°F11.9°C 88% 3.5 mph SW5.6 kmh SW 6.9 mph11.1 kmh 29.70 in1005.8 mb - 0.00 in0.0 mm 0.01 in0.3 mm
04:10 AM 57.0°F13.9°C 53.1°F11.7°C 87% 4.6 mph SW7.4 kmh SW 5.8 mph9.3 kmh 29.70 in1005.8 mb - 0.00 in0.0 mm 0.01 in0.3 mm
04:20 AM 57.0°F13.9°C 53.2°F11.8°C 87% 2.3 mph SW3.7 kmh SW 4.6 mph7.4 kmh 29.70 in1005.8 mb - 0.00 in0.0 mm 0.01 in0.3 mm
04:30 AM 57.1°F13.9°C 53.3°F11.8°C 87% 2.3 mph SW3.7 kmh SW 3.5 mph5.6 kmh 29.70 in1005.8 mb - 0.00 in0.0 mm 0.01 in0.3 mm
04:40 AM 57.1°F13.9°C 53.3°F11.8°C 87% 2.3 mph SW3.7 kmh SW 3.5 mph5.6 kmh 29.71 in1006.1 mb - 0.00 in0.0 mm 0.01 in0.3 mm
04:50 AM 57.2°F14.0°C 53.0°F11.7°C 86% 2.3 mph SW3.7 kmh SW 4.6 mph7.4 kmh 29.70 in1005.8 mb - 0.00 in0.0 mm 0.01 in0.3 mm
05:00 AM 57.3°F14.1°C 53.1°F11.7°C 86% 4.6 mph WSW7.4 kmh WSW 6.9 mph11.1 kmh 29.71 in1006.1 mb - 0.00 in0.0 mm 0.01 in0.3 mm
05:10 AM 57.3°F14.1°C 52.8°F11.6°C 85% 2.3 mph SW3.7 kmh SW 5.8 mph9.3 kmh 29.72 in1006.4 mb - 0.00 in0.0 mm 0.01 in0.3 mm
05:20 AM 57.4°F14.1°C 52.9°F11.6°C 85% 3.5 mph SW5.6 kmh SW 9.2 mph14.8 kmh 29.72 in1006.4 mb - 0.00 in0.0 mm 0.01 in0.3 mm
05:30 AM 57.5°F14.2°C 53.0°F11.7°C 85% 2.3 mph SW3.7 kmh SW 3.5 mph5.6 kmh 29.72 in1006.4 mb - 0.00 in0.0 mm 0.01 in0.3 mm
05:40 AM 57.5°F14.2°C 52.7°F11.5°C 84% 2.3 mph SW3.7 kmh SW 3.5 mph5.6 kmh 29.72 in1006.4 mb - 0.01 in0.3 mm 0.02 in0.5 mm
05:50 AM 57.6°F14.2°C 52.8°F11.6°C 84% 2.3 mph SSW3.7 kmh SSW 5.8 mph9.3 kmh 29.73 in1006.8 mb - 0.00 in0.0 mm 0.02 in0.5 mm
06:00 AM 57.7°F14.3°C 52.9°F11.6°C 84% 2.3 mph SW3.7 kmh SW 4.6 mph7.4 kmh 29.72 in1006.4 mb - 0.00 in0.0 mm 0.02 in0.5 mm
06:10 AM 57.7°F14.3°C 52.9°F11.6°C 84% 2.3 mph SW3.7 kmh SW 8.1 mph13.0 kmh 29.73 in1006.8 mb - 0.00 in0.0 mm 0.02 in0.5 mm
06:20 AM 57.7°F14.3°C 52.9°F11.6°C 84% 1.2 mph SW1.9 kmh SW 2.3 mph3.7 kmh 29.73 in1006.8 mb - 0.00 in0.0 mm 0.02 in0.5 mm
06:30 AM 57.9°F14.4°C 52.8°F11.6°C 83% 3.5 mph SW5.6 kmh SW 6.9 mph11.1 kmh 29.73 in1006.8 mb - 0.00 in0.0 mm 0.02 in0.5 mm
06:40 AM 58.0°F14.4°C 52.5°F11.4°C 82% 4.6 mph SSW7.4 kmh SSW 6.9 mph11.1 kmh 29.74 in1007.1 mb - 0.00 in0.0 mm 0.02 in0.5 mm
06:50 AM 58.3°F14.6°C 52.8°F11.6°C 82% 4.6 mph SSW7.4 kmh SSW 10.4 mph16.7 kmh 29.74 in1007.1 mb - 0.00 in0.0 mm 0.02 in0.5 mm
07:00 AM 59.1°F15.1°C 53.3°F11.8°C 81% 4.6 mph SSW7.4 kmh SSW 6.9 mph11.1 kmh 29.74 in1007.1 mb - 0.00 in0.0 mm 0.02 in0.5 mm
07:10 AM 59.8°F15.4°C 53.6°F12.0°C 80% 5.8 mph SSW9.3 kmh SSW 8.1 mph13.0 kmh 29.74 in1007.1 mb - 0.00 in0.0 mm 0.02 in0.5 mm
07:20 AM 60.7°F15.9°C 54.1°F12.3°C 79% 4.6 mph SW7.4 kmh SW 11.5 mph18.5 kmh 29.75 in1007.5 mb - 0.00 in0.0 mm 0.02 in0.5 mm
07:30 AM 61.8°F16.6°C 54.9°F12.7°C 78% 3.5 mph SSW5.6 kmh SSW 9.2 mph14.8 kmh 29.75 in1007.5 mb - 0.00 in0.0 mm 0.02 in0.5 mm
07:40 AM 62.9°F17.2°C 55.2°F12.9°C 76% 3.5 mph SSW5.6 kmh SSW 4.6 mph7.4 kmh 29.75 in1007.5 mb - 0.00 in0.0 mm 0.02 in0.5 mm
07:50 AM 63.9°F17.7°C 55.1°F12.8°C 73% 4.6 mph S7.4 kmh S 15.0 mph24.1 kmh 29.75 in1007.5 mb - 0.00 in0.0 mm 0.02 in0.5 mm
08:00 AM 64.7°F18.2°C 54.7°F12.6°C 70% 4.6 mph SSW7.4 kmh SSW 11.5 mph18.5 kmh 29.75 in1007.5 mb - 0.00 in0.0 mm 0.02 in0.5 mm
08:10 AM 65.5°F18.6°C 54.6°F12.6°C 68% 9.2 mph S14.8 kmh S 11.5 mph18.5 kmh 29.75 in1007.5 mb - 0.00 in0.0 mm 0.02 in0.5 mm
08:20 AM 66.1°F18.9°C 55.3°F12.9°C 68% 5.8 mph SW9.3 kmh SW 11.5 mph18.5 kmh 29.75 in1007.5 mb - 0.00 in0.0 mm 0.02 in0.5 mm
08:30 AM 66.9°F19.4°C 54.3°F12.4°C 64% 3.5 mph SW5.6 kmh SW 9.2 mph14.8 kmh 29.75 in1007.5 mb - 0.00 in0.0 mm 0.02 in0.5 mm
08:40 AM 67.3°F19.6°C 52.5°F11.4°C 59% 6.9 mph S11.1 kmh S 13.8 mph22.2 kmh 29.75 in1007.5 mb - 0.00 in0.0 mm 0.02 in0.5 mm
08:50 AM 68.3°F20.2°C 52.5°F11.4°C 57% 9.2 mph SSW14.8 kmh SSW 13.8 mph22.2 kmh 29.75 in1007.5 mb - 0.00 in0.0 mm 0.02 in0.5 mm
09:00 AM 68.7°F20.4°C 52.8°F11.6°C 57% 5.8 mph SW9.3 kmh SW 10.4 mph16.7 kmh 29.75 in1007.5 mb - 0.00 in0.0 mm 0.02 in0.5 mm
09:10 AM 68.9°F20.5°C 53.0°F11.7°C 57% 9.2 mph SW14.8 kmh SW 11.5 mph18.5 kmh 29.74 in1007.1 mb - 0.00 in0.0 mm 0.02 in0.5 mm
09:20 AM 69.4°F20.8°C 52.0°F11.1°C 54% 8.1 mph S13.0 kmh S 11.5 mph18.5 kmh 29.74 in1007.1 mb - 0.00 in0.0 mm 0.02 in0.5 mm
09:30 AM 70.8°F21.6°C 54.4°F12.4°C 56% 6.9 mph S11.1 kmh S 11.5 mph18.5 kmh 29.75 in1007.5 mb - 0.00 in0.0 mm 0.02 in0.5 mm
09:40 AM 71.2°F21.8°C 51.1°F10.6°C 49% 6.9 mph SW11.1 kmh SW 8.1 mph13.0 kmh 29.74 in1007.1 mb - 0.00 in0.0 mm 0.02 in0.5 mm
09:50 AM 71.0°F21.7°C 50.3°F10.2°C 48% 5.8 mph SW9.3 kmh SW 8.1 mph13.0 kmh 29.74 in1007.1 mb - 0.00 in0.0 mm 0.02 in0.5 mm
10:00 AM 69.9°F21.1°C 50.4°F10.2°C 50% 6.9 mph SW11.1 kmh SW 6.9 mph11.1 kmh 29.74 in1007.1 mb - 0.00 in0.0 mm 0.02 in0.5 mm
10:10 AM 69.6°F20.9°C 50.1°F10.1°C 50% 4.6 mph S7.4 kmh S 8.1 mph13.0 kmh 29.73 in1006.8 mb - 0.01 in0.3 mm 0.03 in0.8 mm
10:20 AM 69.9°F21.1°C 49.9°F9.9°C 49% 9.2 mph SSW14.8 kmh SSW 11.5 mph18.5 kmh 29.73 in1006.8 mb - 0.01 in0.3 mm 0.03 in0.8 mm
10:30 AM 70.8°F21.6°C 49.6°F9.8°C 47% 8.1 mph SSW13.0 kmh SSW 11.5 mph18.5 kmh 29.72 in1006.4 mb - 0.00 in0.0 mm 0.03 in0.8 mm
10:40 AM 71.6°F22.0°C 50.9°F10.5°C 48% 6.9 mph S11.1 kmh S 8.1 mph13.0 kmh 29.72 in1006.4 mb - 0.00 in0.0 mm 0.03 in0.8 mm
10:50 AM 70.4°F21.3°C 49.8°F9.9°C 48% 4.6 mph S7.4 kmh S 8.1 mph13.0 kmh 29.73 in1006.8 mb - 0.00 in0.0 mm 0.03 in0.8 mm
11:00 AM 69.3°F20.7°C 50.4°F10.2°C 51% 2.3 mph WSW3.7 kmh WSW 6.9 mph11.1 kmh 29.72 in1006.4 mb - 0.00 in0.0 mm 0.03 in0.8 mm
11:10 AM 69.0°F20.6°C 50.6°F10.3°C 52% 6.9 mph SW11.1 kmh SW 10.4 mph16.7 kmh 29.72 in1006.4 mb - 0.00 in0.0 mm 0.03 in0.8 mm
11:20 AM 70.0°F21.1°C 50.5°F10.3°C 50% 9.2 mph SW14.8 kmh SW 11.5 mph18.5 kmh 29.71 in1006.1 mb - 0.00 in0.0 mm 0.03 in0.8 mm
11:30 AM 69.5°F20.8°C 50.6°F10.3°C 51% 5.8 mph SW9.3 kmh SW 11.5 mph18.5 kmh 29.71 in1006.1 mb - 0.00 in0.0 mm 0.03 in0.8 mm
11:40 AM 67.9°F19.9°C 54.0°F12.2°C 61% 6.9 mph S11.1 kmh S 11.5 mph18.5 kmh 29.73 in1006.8 mb - 0.00 in0.0 mm 0.03 in0.8 mm
11:50 AM 67.1°F19.5°C 56.2°F13.4°C 68% 4.6 mph S7.4 kmh S 4.6 mph7.4 kmh 29.72 in1006.4 mb - 0.00 in0.0 mm 0.03 in0.8 mm
12:00 PM 67.8°F19.9°C 57.7°F14.3°C 70% 5.8 mph SSE9.3 kmh SSE 8.1 mph13.0 kmh 29.72 in1006.4 mb - 0.00 in0.0 mm 0.03 in0.8 mm
12:10 PM 67.3°F19.6°C 56.8°F13.8°C 69% 4.6 mph S7.4 kmh S 9.2 mph14.8 kmh 29.73 in1006.8 mb - 0.00 in0.0 mm 0.03 in0.8 mm
12:20 PM 66.6°F19.2°C 56.1°F13.4°C 69% 4.6 mph S7.4 kmh S 6.9 mph11.1 kmh 29.73 in1006.8 mb - 0.00 in0.0 mm 0.03 in0.8 mm
12:30 PM 67.2°F19.6°C 58.2°F14.6°C 73% 6.9 mph S11.1 kmh S 11.5 mph18.5 kmh 29.72 in1006.4 mb - 0.00 in0.0 mm 0.03 in0.8 mm
12:40 PM 67.3°F19.6°C 56.8°F13.8°C 69% 2.3 mph SSE3.7 kmh SSE 5.8 mph9.3 kmh 29.72 in1006.4 mb - 0.00 in0.0 mm 0.03 in0.8 mm
12:50 PM 67.0°F19.4°C 55.6°F13.1°C 67% 3.5 mph SSW5.6 kmh SSW 4.6 mph7.4 kmh 29.72 in1006.4 mb - 0.00 in0.0 mm 0.03 in0.8 mm
01:00 PM 66.3°F19.1°C 55.1°F12.8°C 67% 5.8 mph SW9.3 kmh SW 8.1 mph13.0 kmh 29.72 in1006.4 mb - 0.00 in0.0 mm 0.03 in0.8 mm
01:10 PM 65.5°F18.6°C 55.4°F13.0°C 70% 1.2 mph SW1.9 kmh SW 3.5 mph5.6 kmh 29.72 in1006.4 mb - 0.00 in0.0 mm 0.03 in0.8 mm
01:20 PM 65.2°F18.4°C 56.3°F13.5°C 73% 2.3 mph SW3.7 kmh SW 3.5 mph5.6 kmh 29.72 in1006.4 mb - 0.00 in0.0 mm 0.03 in0.8 mm
01:30 PM 65.2°F18.4°C 56.7°F13.7°C 74% 2.3 mph SW3.7 kmh SW 4.6 mph7.4 kmh 29.72 in1006.4 mb - 0.00 in0.0 mm 0.03 in0.8 mm
01:40 PM 64.2°F17.9°C 56.1°F13.4°C 75% 4.6 mph SW7.4 kmh SW 6.9 mph11.1 kmh 29.73 in1006.8 mb - 0.00 in0.0 mm 0.03 in0.8 mm
01:50 PM 63.1°F17.3°C 55.4°F13.0°C 76% 4.6 mph SW7.4 kmh SW 9.2 mph14.8 kmh 29.72 in1006.4 mb - 0.00 in0.0 mm 0.03 in0.8 mm
02:00 PM 62.6°F17.0°C 55.9°F13.3°C 79% 4.6 mph SSW7.4 kmh SSW 9.2 mph14.8 kmh 29.73 in1006.8 mb - 0.00 in0.0 mm 0.03 in0.8 mm
02:10 PM 63.1°F17.3°C 57.9°F14.4°C 83% 5.8 mph S9.3 kmh S 12.7 mph20.4 kmh 29.72 in1006.4 mb - 0.00 in0.0 mm 0.03 in0.8 mm
02:20 PM 64.3°F17.9°C 59.0°F15.0°C 83% 5.8 mph S9.3 kmh S 5.8 mph9.3 kmh 29.72 in1006.4 mb - 0.00 in0.0 mm 0.03 in0.8 mm
02:30 PM 64.2°F17.9°C 57.6°F14.2°C 79% 6.9 mph SW11.1 kmh SW 11.5 mph18.5 kmh 29.72 in1006.4 mb - 0.00 in0.0 mm 0.03 in0.8 mm
02:40 PM 63.7°F17.6°C 56.7°F13.7°C 78% 6.9 mph SSW11.1 kmh SSW 11.5 mph18.5 kmh 29.72 in1006.4 mb - 0.00 in0.0 mm 0.03 in0.8 mm
02:50 PM 63.8°F17.7°C 57.2°F14.0°C 79% 8.1 mph SW13.0 kmh SW 11.5 mph18.5 kmh 29.72 in1006.4 mb - 0.00 in0.0 mm 0.03 in0.8 mm
03:00 PM 64.0°F17.8°C 56.6°F13.7°C 77% 5.8 mph S9.3 kmh S 8.1 mph13.0 kmh 29.72 in1006.4 mb - 0.00 in0.0 mm 0.03 in0.8 mm
03:10 PM 64.2°F17.9°C 56.9°F13.8°C 77% 6.9 mph SW11.1 kmh SW 11.5 mph18.5 kmh 29.72 in1006.4 mb - 0.00 in0.0 mm 0.03 in0.8 mm
03:20 PM 64.3°F17.9°C 55.8°F13.2°C 74% 4.6 mph SW7.4 kmh SW 9.2 mph14.8 kmh 29.72 in1006.4 mb - 0.00 in0.0 mm 0.03 in0.8 mm
03:30 PM 64.5°F18.1°C 56.4°F13.6°C 75% 6.9 mph SW11.1 kmh SW 6.9 mph11.1 kmh 29.71 in1006.1 mb - 0.00 in0.0 mm 0.03 in0.8 mm
03:40 PM 64.8°F18.2°C 56.0°F13.3°C 73% 3.5 mph S5.6 kmh S 4.6 mph7.4 kmh 29.72 in1006.4 mb - 0.00 in0.0 mm 0.03 in0.8 mm
03:50 PM 63.8°F17.7°C 54.2°F12.3°C 71% 8.1 mph E13.0 kmh E 15.0 mph24.1 kmh 29.72 in1006.4 mb - 0.00 in0.0 mm 0.03 in0.8 mm
04:00 PM 62.5°F16.9°C 53.7°F12.1°C 73% 6.9 mph ESE11.1 kmh ESE 16.1 mph25.9 kmh 29.74 in1007.1 mb - 0.00 in0.0 mm 0.03 in0.8 mm
04:10 PM 61.6°F16.4°C 53.5°F11.9°C 75% 2.3 mph SE3.7 kmh SE 4.6 mph7.4 kmh 29.74 in1007.1 mb - 0.00 in0.0 mm 0.03 in0.8 mm
04:20 PM 61.1°F16.2°C 53.8°F12.1°C 77% 2.3 mph ESE3.7 kmh ESE 5.8 mph9.3 kmh 29.74 in1007.1 mb - 0.00 in0.0 mm 0.03 in0.8 mm
04:30 PM 61.0°F16.1°C 54.4°F12.4°C 79% 1.2 mph ESE1.9 kmh ESE 2.3 mph3.7 kmh 29.75 in1007.5 mb - 0.00 in0.0 mm 0.03 in0.8 mm
04:40 PM 61.0°F16.1°C 54.4°F12.4°C 79% 2.3 mph SE3.7 kmh SE 3.5 mph5.6 kmh 29.75 in1007.5 mb - 0.00 in0.0 mm 0.03 in0.8 mm
04:50 PM 60.8°F16.0°C 54.2°F12.3°C 79% 1.2 mph SE1.9 kmh SE 6.9 mph11.1 kmh 29.75 in1007.5 mb - 0.00 in0.0 mm 0.03 in0.8 mm
05:00 PM 60.7°F15.9°C 54.5°F12.5°C 80% 4.6 mph SE7.4 kmh SE 5.8 mph9.3 kmh 29.76 in1007.8 mb - 0.00 in0.0 mm 0.03 in0.8 mm
05:10 PM 60.0°F15.6°C 53.8°F12.1°C 80% 5.8 mph SE9.3 kmh SE 11.5 mph18.5 kmh 29.76 in1007.8 mb - 0.01 in0.3 mm 0.04 in1.0 mm
05:20 PM 59.4°F15.2°C 53.2°F11.8°C 80% 4.6 mph ESE7.4 kmh ESE 11.5 mph18.5 kmh 29.77 in1008.1 mb - 0.00 in0.0 mm 0.04 in1.0 mm
05:30 PM 58.8°F14.9°C 52.6°F11.4°C 80% 4.6 mph ESE7.4 kmh ESE 9.2 mph14.8 kmh 29.77 in1008.1 mb - 0.00 in0.0 mm 0.04 in1.0 mm
05:40 PM 58.5°F14.7°C 52.7°F11.5°C 81% 2.3 mph ESE3.7 kmh ESE 4.6 mph7.4 kmh 29.78 in1008.5 mb - 0.00 in0.0 mm 0.04 in1.0 mm
05:50 PM 58.4°F14.7°C 53.2°F11.8°C 83% 2.3 mph SE3.7 kmh SE 5.8 mph9.3 kmh 29.79 in1008.8 mb - 0.00 in0.0 mm 0.04 in1.0 mm
06:00 PM 58.6°F14.8°C 53.8°F12.1°C 84% 3.5 mph SE5.6 kmh SE 11.5 mph18.5 kmh 29.80 in1009.1 mb - 0.00 in0.0 mm 0.04 in1.0 mm
06:10 PM 57.8°F14.3°C 52.3°F11.3°C 82% 5.8 mph SE9.3 kmh SE 9.2 mph14.8 kmh 29.81 in1009.5 mb - 0.00 in0.0 mm 0.04 in1.0 mm
06:20 PM 57.0°F13.9°C 51.6°F10.9°C 82% 2.3 mph SE3.7 kmh SE 5.8 mph9.3 kmh 29.81 in1009.5 mb - 0.00 in0.0 mm 0.04 in1.0 mm
06:30 PM 56.8°F13.8°C 51.7°F10.9°C 83% 3.5 mph SE5.6 kmh SE 5.8 mph9.3 kmh 29.82 in1009.8 mb - 0.00 in0.0 mm 0.04 in1.0 mm
06:40 PM 56.6°F13.7°C 51.2°F10.7°C 82% 5.8 mph SE9.3 kmh SE 9.2 mph14.8 kmh 29.82 in1009.8 mb - 0.00 in0.0 mm 0.04 in1.0 mm
06:50 PM 56.4°F13.6°C 51.0°F10.6°C 82% 3.5 mph SSE5.6 kmh SSE 8.1 mph13.0 kmh 29.82 in1009.8 mb - 0.27 in6.9 mm 0.31 in7.9 mm
07:00 PM 56.2°F13.4°C 50.8°F10.4°C 82% 4.6 mph SSE7.4 kmh SSE 6.9 mph11.1 kmh 29.83 in1010.2 mb - 0.01 in0.3 mm 0.31 in7.9 mm
07:10 PM 56.1°F13.4°C 50.7°F10.4°C 82% 5.8 mph SE9.3 kmh SE 8.1 mph13.0 kmh 29.84 in1010.5 mb - 0.00 in0.0 mm 0.31 in7.9 mm
07:20 PM 55.9°F13.3°C 50.5°F10.3°C 82% 2.3 mph SE3.7 kmh SE 6.9 mph11.1 kmh 29.85 in1010.8 mb - 0.00 in0.0 mm 0.31 in7.9 mm
07:30 PM 55.7°F13.2°C 50.3°F10.2°C 82% 2.3 mph SE3.7 kmh SE 6.9 mph11.1 kmh 29.86 in1011.2 mb - 0.00 in0.0 mm 0.31 in7.9 mm
07:40 PM 55.6°F13.1°C 50.2°F10.1°C 82% 1.2 mph ESE1.9 kmh ESE 2.3 mph3.7 kmh 29.86 in1011.2 mb - 0.00 in0.0 mm 0.31 in7.9 mm
07:50 PM 55.6°F13.1°C 50.5°F10.3°C 83% 4.6 mph SE7.4 kmh SE 8.1 mph13.0 kmh 29.88 in1011.9 mb - 0.01 in0.3 mm 0.32 in8.1 mm
08:00 PM 55.6°F13.1°C 50.8°F10.4°C 84% 2.3 mph S3.7 kmh S 3.5 mph5.6 kmh 29.88 in1011.9 mb - 0.00 in0.0 mm 0.32 in8.1 mm
08:10 PM 55.5°F13.1°C 50.7°F10.4°C 84% 5.8 mph SE9.3 kmh SE 8.1 mph13.0 kmh 29.89 in1012.2 mb - 0.00 in0.0 mm 0.32 in8.1 mm
08:20 PM 55.2°F12.9°C 50.5°F10.3°C 84% 4.6 mph SE7.4 kmh SE 9.2 mph14.8 kmh 29.89 in1012.2 mb - 0.00 in0.0 mm 0.32 in8.1 mm
08:30 PM 55.0°F12.8°C 50.6°F10.3°C 85% 2.3 mph SSE3.7 kmh SSE 8.1 mph13.0 kmh 29.90 in1012.5 mb - 0.00 in0.0 mm 0.32 in8.1 mm
08:40 PM 54.9°F12.7°C 50.5°F10.3°C 85% 1.2 mph SSE1.9 kmh SSE 3.5 mph5.6 kmh 29.90 in1012.5 mb - 0.00 in0.0 mm 0.32 in8.1 mm
08:50 PM 54.8°F12.7°C 50.4°F10.2°C 85% 3.5 mph SSE5.6 kmh SSE 9.2 mph14.8 kmh 29.91 in1012.9 mb - 0.00 in0.0 mm 0.32 in8.1 mm
09:00 PM 54.6°F12.6°C 49.8°F9.9°C 84% 3.5 mph SSE5.6 kmh SSE 5.8 mph9.3 kmh 29.91 in1012.9 mb - 0.00 in0.0 mm 0.32 in8.1 mm
09:10 PM 54.4°F12.4°C 50.0°F10.0°C 85% 4.6 mph S7.4 kmh S 9.2 mph14.8 kmh 29.93 in1013.5 mb - 0.00 in0.0 mm 0.32 in8.1 mm
09:20 PM 54.3°F12.4°C 49.9°F9.9°C 85% 8.1 mph SSE13.0 kmh SSE 11.5 mph18.5 kmh 29.93 in1013.5 mb - 0.00 in0.0 mm 0.32 in8.1 mm
09:30 PM 54.2°F12.3°C 49.8°F9.9°C 85% 1.2 mph S1.9 kmh S 3.5 mph5.6 kmh 29.93 in1013.5 mb - 0.00 in0.0 mm 0.32 in8.1 mm
09:40 PM 54.1°F12.3°C 49.7°F9.8°C 85% 2.3 mph S3.7 kmh S 6.9 mph11.1 kmh 29.93 in1013.5 mb - 0.00 in0.0 mm 0.32 in8.1 mm
09:50 PM 53.8°F12.1°C 49.4°F9.7°C 85% 2.3 mph S3.7 kmh S 2.3 mph3.7 kmh 29.93 in1013.5 mb - 0.00 in0.0 mm 0.32 in8.1 mm
10:00 PM 53.7°F12.1°C 49.3°F9.6°C 85% 3.5 mph S5.6 kmh S 6.9 mph11.1 kmh 29.93 in1013.5 mb - 0.00 in0.0 mm 0.32 in8.1 mm
10:10 PM 53.5°F11.9°C 49.1°F9.5°C 85% 3.5 mph S5.6 kmh S 9.2 mph14.8 kmh 29.94 in1013.9 mb - 0.00 in0.0 mm 0.32 in8.1 mm
10:20 PM 53.4°F11.9°C 49.0°F9.4°C 85% 4.6 mph S7.4 kmh S 5.8 mph9.3 kmh 29.94 in1013.9 mb - 0.01 in0.3 mm 0.32 in8.1 mm
10:30 PM 53.5°F11.9°C 49.4°F9.7°C 86% 3.5 mph S5.6 kmh S 6.9 mph11.1 kmh 29.95 in1014.2 mb - 0.01 in0.3 mm 0.32 in8.1 mm
10:40 PM 53.6°F12.0°C 49.5°F9.7°C 86% 4.6 mph S7.4 kmh S 8.1 mph13.0 kmh 29.95 in1014.2 mb - 0.00 in0.0 mm 0.32 in8.1 mm
10:50 PM 53.5°F11.9°C 49.4°F9.7°C 86% 3.5 mph S5.6 kmh S 5.8 mph9.3 kmh 29.95 in1014.2 mb - 0.00 in0.0 mm 0.32 in8.1 mm
11:00 PM 53.3°F11.8°C 49.2°F9.6°C 86% 4.6 mph S7.4 kmh S 6.9 mph11.1 kmh 29.95 in1014.2 mb - 0.00 in0.0 mm 0.35 in8.9 mm
11:10 PM 53.1°F11.7°C 49.0°F9.4°C 86% 5.8 mph S9.3 kmh S 6.9 mph11.1 kmh 29.96 in1014.6 mb - 0.00 in0.0 mm 0.35 in8.9 mm
11:20 PM 52.9°F11.6°C 48.8°F9.3°C 86% 4.6 mph S7.4 kmh S 8.1 mph13.0 kmh 29.96 in1014.6 mb - 0.00 in0.0 mm 0.35 in8.9 mm
11:30 PM 52.8°F11.6°C 48.7°F9.3°C 86% 3.5 mph S5.6 kmh S 5.8 mph9.3 kmh 29.96 in1014.6 mb - 0.00 in0.0 mm 0.35 in8.9 mm
11:40 PM 52.7°F11.5°C 49.0°F9.4°C 87% 4.6 mph S7.4 kmh S 4.6 mph7.4 kmh 29.96 in1014.6 mb - 0.00 in0.0 mm 0.35 in8.9 mm
11:50 PM 52.6°F11.4°C 48.5°F9.2°C 86% 3.5 mph S5.6 kmh S 5.8 mph9.3 kmh 29.97 in1014.9 mb - 0.00 in0.0 mm 0.35 in8.9 mm